Time;durP1;ratioP1;P1;durP2;ratioP2;P2;SDS_P1;SDS_P2;PMS_P1;PMS_P2;Temp;Humidity;BMP_temperature;BMP_pressure;BME280_temperature;BME280_humidity;BME280_pressure;Samples;Min_cycle;Max_cycle;Signal;HPM_P1;HPM_P2
2021/10/13 00:02:15;;;;;;;17.27;11.23;;;;;;;7.73;97.16;100184.97;4991600;28;20030;-62
2021/10/13 00:04:40;;;;;;;12.75;9.93;;;;;;;7.75;97.59;100180.38;4991841;28;20476;-62
2021/10/13 00:07:06;;;;;;;20.10;11.90;;;;;;;7.72;97.82;100180.59;4991756;28;20121;-63
2021/10/13 00:09:31;;;;;;;15.95;10.98;;;;;;;7.69;97.85;100173.69;4991864;28;20545;-62
2021/10/13 00:11:56;;;;;;;14.90;10.07;;;;;;;7.72;97.93;100176.13;4991509;28;20030;-63
2021/10/13 00:14:23;;;;;;;16.10;10.98;;;;;;;7.61;97.83;100165.44;4991816;28;20057;-62
2021/10/13 00:17:02;;;;;;;16.30;11.18;;;;;;;7.61;98.27;100178.78;4991849;28;20030;-62
2021/10/13 00:19:29;;;;;;;14.68;10.75;;;;;;;7.56;97.98;100172.09;4991404;28;20069;-63
2021/10/13 00:21:55;;;;;;;15.70;10.90;;;;;;;7.55;98.45;100173.06;4991358;28;20110;-63
2021/10/13 00:24:21;;;;;;;14.35;10.80;;;;;;;7.42;98.71;100154.50;4991300;28;20121;-61
2021/10/13 00:26:46;;;;;;;17.58;11.45;;;;;;;7.43;98.90;100166.88;4995125;28;20054;-62
2021/10/13 00:29:12;;;;;;;17.88;11.82;;;;;;;7.39;99.24;100154.75;5010580;28;20518;-62
2021/10/13 00:31:37;;;;;;;17.65;12.15;;;;;;;7.36;99.39;100159.47;5011109;28;20464;-63
2021/10/13 00:34:03;;;;;;;17.40;11.38;;;;;;;7.34;99.18;100162.25;5011046;28;20022;-63
2021/10/13 00:36:28;;;;;;;15.43;11.52;;;;;;;7.15;98.70;100135.28;5010743;28;20034;-62
2021/10/13 00:38:54;;;;;;;15.80;10.60;;;;;;;7.22;98.20;100157.84;5010459;28;20101;-62
2021/10/13 00:41:19;;;;;;;15.63;11.70;;;;;;;7.22;97.31;100165.00;5010382;28;20079;-62
2021/10/13 00:43:44;;;;;;;14.68;10.85;;;;;;;7.18;96.65;100166.19;5010480;28;20105;-62
2021/10/13 00:46:10;;;;;;;16.33;10.27;;;;;;;7.15;96.86;100161.94;5010497;28;20037;-63
2021/10/13 00:48:35;;;;;;;17.58;10.75;;;;;;;7.11;96.52;100162.28;5010842;28;20042;-63
2021/10/13 00:51:01;;;;;;;16.40;11.68;;;;;;;6.96;95.77;100146.50;5010505;28;20049;-61
2021/10/13 00:53:27;;;;;;;16.20;10.93;;;;;;;6.99;95.56;100148.94;5009007;28;20037;-63
2021/10/13 00:55:52;;;;;;;14.95;10.50;;;;;;;7.00;96.06;100152.47;5010336;28;20387;-62
2021/10/13 00:58:19;;;;;;;15.52;10.10;;;;;;;6.98;96.24;100152.56;5010043;28;20030;-63
2021/10/13 01:00:47;;;;;;;18.85;12.20;;;;;;;6.98;96.50;100149.06;5010302;28;20168;-62
2021/10/13 01:03:24;;;;;;;20.17;11.52;;;;;;;6.91;96.42;100151.31;5009681;28;20388;-63
2021/10/13 01:06:19;;;;;;;21.02;12.05;;;;;;;6.93;96.45;100159.19;5009895;28;20022;-62
2021/10/13 01:09:14;;;;;;;18.60;12.90;;;;;;;6.92;97.50;100161.03;5010035;28;20506;-62
2021/10/13 01:11:58;;;;;;;;;;;;;;;6.91;98.06;100153.16;5010972;28;20112;-62
2021/10/13 01:14:54;;;;;;;16.60;11.60;;;;;;;6.89;97.95;100158.59;5009916;28;19963;-62
2021/10/13 01:17:32;;;;;;;16.50;11.85;;;;;;;6.91;98.18;100159.31;5009909;28;20030;-63
2021/10/13 01:20:23;;;;;;;18.42;12.32;;;;;;;6.90;98.46;100154.97;4996417;28;20030;-61
2021/10/13 01:23:16;;;;;;;16.23;11.30;;;;;;;6.92;99.10;100162.84;4990179;28;20108;-63
2021/10/13 01:25:46;;;;;;;19.15;13.40;;;;;;;6.88;99.66;100156.91;4989953;28;20092;-63
2021/10/13 01:28:24;;;;;;;16.67;11.57;;;;;;;6.83;99.60;100155.53;4989508;28;20452;-63
2021/10/13 01:30:53;;;;;;;19.60;12.60;;;;;;;6.85;99.09;100164.28;4990114;28;20081;-63
2021/10/13 01:33:26;;;;;;;21.23;12.93;;;;;;;6.83;99.81;100156.38;4990087;28;20062;-61
2021/10/13 01:35:55;;;;;;;18.70;12.43;;;;;;;6.81;100.00;100160.16;4990117;28;20057;-62
2021/10/13 01:38:25;;;;;;;20.20;12.55;;;;;;;6.85;100.00;100162.47;4989838;28;20113;-62
2021/10/13 01:40:54;;;;;;;18.52;12.43;;;;;;;6.71;100.00;100130.66;4989851;28;20381;-63
2021/10/13 01:43:21;;;;;;;21.75;14.30;;;;;;;6.89;99.99;100157.75;4989507;28;20041;-62
2021/10/13 01:45:51;;;;;;;22.67;13.25;;;;;;;6.80;100.00;100156.63;4989607;28;20046;-62
2021/10/13 01:48:18;;;;;;;20.27;13.48;;;;;;;6.83;100.00;100160.84;4989527;28;20018;-62
2021/10/13 01:50:46;;;;;;;18.88;12.75;;;;;;;6.80;100.00;100167.28;4989616;28;20038;-61
2021/10/13 01:53:15;;;;;;;19.02;13.38;;;;;;;6.80;100.00;100169.09;4988483;28;20053;-61
2021/10/13 01:55:42;;;;;;;22.00;13.63;;;;;;;6.76;100.00;100172.94;4989742;28;20365;-61
2021/10/13 01:58:10;;;;;;;19.33;12.82;;;;;;;6.73;100.00;100165.19;4989649;28;20483;-62
2021/10/13 02:00:36;;;;;;;18.10;13.55;;;;;;;6.73;100.00;100183.84;4989655;28;20026;-62
2021/10/13 02:03:06;;;;;;;19.60;13.13;;;;;;;6.68;100.00;100168.19;4989390;28;20745;-62
2021/10/13 02:05:35;;;;;;;20.30;13.02;;;;;;;6.65;100.00;100165.75;4989315;28;20034;-62
2021/10/13 02:08:01;;;;;;;20.08;13.25;;;;;;;6.65;100.00;100173.75;4987960;28;20038;-62
2021/10/13 02:10:27;;;;;;;19.77;13.57;;;;;;;6.63;100.00;100167.69;4989172;28;20476;-61
2021/10/13 02:12:57;;;;;;;21.25;13.38;;;;;;;6.65;100.00;100172.91;4989329;28;20101;-62
2021/10/13 02:15:24;;;;;;;21.08;12.80;;;;;;;6.61;100.00;100176.78;4988573;28;20026;-62
2021/10/13 02:17:51;;;;;;;19.90;13.02;;;;;;;6.61;100.00;100166.94;4989270;28;20034;-62
2021/10/13 02:20:19;;;;;;;21.40;13.77;;;;;;;6.60;100.00;100165.25;4989006;28;20492;-60
2021/10/13 02:22:50;;;;;;;19.33;13.13;;;;;;;6.57;100.00;100173.47;4989063;28;20477;-62
2021/10/13 02:25:16;;;;;;;19.77;12.52;;;;;;;6.60;100.00;100180.38;4989279;28;20072;-61
2021/10/13 02:27:50;;;;;;;20.50;14.10;;;;;;;6.56;100.00;100177.09;4989051;28;20053;-62
2021/10/13 02:30:16;;;;;;;18.88;13.05;;;;;;;6.56;100.00;100168.25;4988806;28;20038;-62
2021/10/13 02:32:42;;;;;;;19.67;13.60;;;;;;;6.51;100.00;100171.25;4989200;28;20045;-61
2021/10/13 02:35:08;;;;;;;18.55;12.50;;;;;;;6.47;100.00;100159.13;4989156;28;20022;-61
2021/10/13 02:37:33;;;;;;;20.67;13.15;;;;;;;6.58;100.00;100177.81;4989027;28;20481;-62
2021/10/13 02:39:59;;;;;;;17.73;12.48;;;;;;;6.54;100.00;100176.34;4988927;28;20033;-62
2021/10/13 02:42:24;;;;;;;18.88;13.05;;;;;;;6.48;100.00;100174.13;4988947;28;20053;-62
2021/10/13 02:44:51;;;;;;;21.08;12.45;;;;;;;6.56;100.00;100169.13;4988365;28;20127;-61
2021/10/13 02:47:28;;;;;;;19.02;13.38;;;;;;;6.54;100.00;100168.38;4988251;28;20026;-61
2021/10/13 02:50:08;;;;;;;25.67;14.02;;;;;;;6.54;100.00;100175.50;4988218;28;20115;-62
2021/10/13 02:53:00;;;;;;;22.98;13.43;;;;;;;6.54;100.00;100181.69;4988710;28;20027;-62
2021/10/13 02:55:36;;;;;;;20.05;12.93;;;;;;;6.50;100.00;100174.88;4986729;28;20112;-61
2021/10/13 02:58:17;;;;;;;16.77;12.05;;;;;;;6.52;100.00;100183.59;4986961;28;20387;-60
2021/10/13 03:00:46;;;;;;;20.02;12.95;;;;;;;6.48;99.96;100181.31;4988380;28;20026;-62
2021/10/13 03:03:28;;;;;;;20.70;13.00;;;;;;;6.48;100.00;100181.31;4988792;28;20488;-61
2021/10/13 03:05:58;;;;;;;20.67;12.43;;;;;;;6.50;100.00;100195.34;4987952;28;20081;-61
2021/10/13 03:08:26;;;;;;;18.08;12.95;;;;;;;6.49;100.00;100193.66;4988266;28;20424;-61
2021/10/13 03:10:55;;;;;;;19.08;12.98;;;;;;;6.50;100.00;100195.34;4988196;28;20026;-61
2021/10/13 03:13:25;;;;;;;20.17;13.48;;;;;;;6.51;100.00;100192.56;4988241;28;20034;-61
2021/10/13 03:15:52;;;;;;;20.95;12.30;;;;;;;6.51;100.00;100197.03;4988000;28;20440;-61
2021/10/13 03:18:20;;;;;;;17.40;11.63;;;;;;;6.48;100.00;100203.44;4987768;28;20026;-61
2021/10/13 03:20:50;;;;;;;18.27;12.60;;;;;;;6.46;100.00;100207.19;4987994;28;20548;-60
2021/10/13 03:23:17;;;;;;;18.33;12.82;;;;;;;6.43;100.00;100200.28;4987933;28;20045;-59
2021/10/13 03:25:43;;;;;;;22.20;13.95;;;;;;;6.43;100.00;100210.94;4988542;28;20030;-61
2021/10/13 03:28:08;;;;;;;22.55;14.50;;;;;;;6.36;100.00;100198.16;4991248;28;20042;-61
2021/10/13 03:30:34;;;;;;;20.77;13.90;;;;;;;6.28;100.00;100197.84;4991767;28;20030;-61
2021/10/13 03:33:00;;;;;;;18.40;13.07;;;;;;;6.30;100.00;100202.13;4991563;28;20022;-61
2021/10/13 03:35:26;;;;;;;18.17;12.70;;;;;;;6.29;100.00;100204.91;4991947;28;20045;-61
2021/10/13 03:37:53;;;;;;;20.67;13.00;;;;;;;6.22;100.00;100196.50;4993303;28;20030;-62
2021/10/13 03:40:20;;;;;;;17.38;12.48;;;;;;;6.17;100.00;100197.78;4992358;28;20128;-62
2021/10/13 03:42:45;;;;;;;19.08;12.57;;;;;;;6.19;100.00;100210.03;4991924;28;20362;-62
2021/10/13 03:45:16;;;;;;;19.50;13.23;;;;;;;6.03;100.00;100190.78;4992177;28;20025;-61
2021/10/13 03:47:42;;;;;;;18.02;12.18;;;;;;;6.03;100.00;100192.59;4992377;28;20424;-60
2021/10/13 03:50:09;;;;;;;21.02;14.20;;;;;;;6.07;100.00;100200.28;4991820;28;20046;-60
2021/10/13 03:52:35;;;;;;;19.10;12.75;;;;;;;6.02;100.00;100210.38;4991793;28;20120;-61
2021/10/13 03:55:00;;;;;;;20.45;13.52;;;;;;;6.01;100.00;100206.03;4990450;28;20472;-60
2021/10/13 03:57:26;;;;;;;19.48;12.82;;;;;;;6.03;100.00;100217.41;4991750;28;20037;-61
2021/10/13 03:59:51;;;;;;;19.65;13.25;;;;;;;5.99;100.00;100207.94;4991549;28;20037;-61
2021/10/13 04:02:17;;;;;;;20.70;13.85;;;;;;;5.97;100.00;100209.84;4991426;28;20034;-61
2021/10/13 04:04:42;;;;;;;21.02;13.32;;;;;;;6.00;100.00;100211.47;4991991;28;20041;-60
2021/10/13 04:07:07;;;;;;;22.52;13.43;;;;;;;6.00;100.00;100212.28;4991304;28;20025;-61
2021/10/13 04:09:33;;;;;;;21.30;13.75;;;;;;;6.10;100.00;100207.19;4990451;28;20034;-62
2021/10/13 04:11:58;;;;;;;22.38;14.38;;;;;;;6.11;100.00;100208.88;4990933;28;20112;-62
2021/10/13 04:14:24;;;;;;;21.15;13.27;;;;;;;6.10;100.00;100218.66;4991503;28;20029;-62
2021/10/13 04:16:49;;;;;;;22.00;13.18;;;;;;;6.04;100.00;100208.47;4991441;28;20041;-61
2021/10/13 04:19:15;;;;;;;22.63;14.15;;;;;;;6.02;100.00;100218.38;4991359;28;20022;-61
2021/10/13 04:21:40;;;;;;;21.95;13.85;;;;;;;6.00;100.00;100219.44;4991434;28;20037;-61
2021/10/13 04:24:05;;;;;;;20.05;13.93;;;;;;;6.01;100.00;100213.16;4991301;28;20062;-61
2021/10/13 04:26:31;;;;;;;25.85;14.88;;;;;;;5.98;100.00;100210.69;4989814;28;20046;-62
2021/10/13 04:28:56;;;;;;;20.45;13.82;;;;;;;5.99;100.00;100221.25;4987880;28;20030;-60
2021/10/13 04:31:22;;;;;;;20.48;13.38;;;;;;;6.00;100.00;100219.44;4986894;28;20015;-61
2021/10/13 04:33:47;;;;;;;19.70;13.13;;;;;;;5.95;100.00;100225.09;4990920;28;20034;-60
2021/10/13 04:36:13;;;;;;;21.60;13.63;;;;;;;5.95;100.00;100230.41;4991286;28;20053;-60
2021/10/13 04:38:38;;;;;;;19.85;12.80;;;;;;;5.94;100.00;100227.84;4990252;28;20049;-59
2021/10/13 04:41:04;;;;;;;20.10;13.75;;;;;;;5.94;100.00;100228.69;4990657;28;20108;-61
2021/10/13 04:43:29;;;;;;;22.35;15.00;;;;;;;5.84;100.00;100216.16;4990890;28;20030;-61
2021/10/13 04:45:54;;;;;;;20.17;14.63;;;;;;;5.87;100.00;100219.44;4990899;28;20089;-61
2021/10/13 04:48:20;;;;;;;22.23;13.48;;;;;;;5.90;100.00;100232.53;4990743;28;20101;-61
2021/10/13 04:50:45;;;;;;;21.90;14.13;;;;;;;5.87;100.00;100229.25;4990754;28;20053;-60
2021/10/13 04:53:11;;;;;;;23.75;14.30;;;;;;;5.84;100.00;100227.63;5006072;28;20026;-61
2021/10/13 04:55:36;;;;;;;22.60;13.38;;;;;;;5.83;100.00;100241.03;4990888;28;20504;-61
2021/10/13 04:58:02;;;;;;;19.02;12.73;;;;;;;5.74;100.00;100228.38;5005593;28;20495;-61
2021/10/13 05:00:28;;;;;;;21.17;14.10;;;;;;;5.80;100.00;100241.25;4989152;28;20104;-62
2021/10/13 05:02:54;;;;;;;19.90;13.70;;;;;;;5.82;100.00;100242.00;4990433;28;20053;-61
2021/10/13 05:05:19;;;;;;;27.13;13.75;;;;;;;5.78;100.00;100229.84;4990563;28;20365;-61
2021/10/13 05:07:45;;;;;;;22.45;14.32;;;;;;;5.78;100.00;100244.00;4990774;28;20045;-61
2021/10/13 05:10:11;;;;;;;23.20;14.02;;;;;;;5.73;100.00;100243.47;4990728;28;20053;-62
2021/10/13 05:12:36;;;;;;;21.42;13.95;;;;;;;5.79;100.00;100253.69;4990498;28;20114;-61
2021/10/13 05:15:02;;;;;;;22.85;14.90;;;;;;;5.75;100.00;100246.88;4990440;28;20115;-61
2021/10/13 05:17:28;;;;;;;26.73;14.60;;;;;;;5.81;100.00;100254.44;4988915;28;20035;-62
2021/10/13 05:19:53;;;;;;;27.13;14.40;;;;;;;5.84;100.00;100264.06;4990081;28;20050;-61
2021/10/13 05:22:19;;;;;;;26.80;15.35;;;;;;;5.85;100.00;100266.63;4990543;28;20036;-62
2021/10/13 05:24:44;;;;;;;26.35;14.98;;;;;;;5.83;100.00;100270.31;4991284;28;20037;-61
2021/10/13 05:27:10;;;;;;;28.13;16.58;;;;;;;5.89;100.00;100277.88;4990680;28;20042;-61
2021/10/13 05:29:35;;;;;;;23.63;15.90;;;;;;;6.02;100.00;100278.72;4990710;28;20491;-60
2021/10/13 05:32:01;;;;;;;25.13;15.57;;;;;;;6.03;100.00;100280.44;4990362;28;20024;-61
2021/10/13 05:34:26;;;;;;;28.05;15.85;;;;;;;6.03;100.00;100294.59;4990664;28;20037;-61
2021/10/13 05:36:51;;;;;;;24.10;14.63;;;;;;;6.03;100.00;100296.44;4990242;28;20030;-62
2021/10/13 05:39:17;;;;;;;23.40;14.10;;;;;;;6.11;100.00;100308.25;4990580;28;20026;-61
2021/10/13 05:41:42;;;;;;;23.33;15.10;;;;;;;6.12;100.00;100296.63;4990714;28;20118;-61
2021/10/13 05:44:08;;;;;;;24.42;15.70;;;;;;;6.16;100.00;100308.75;4990221;28;20045;-60
2021/10/13 05:46:33;;;;;;;23.05;15.75;;;;;;;6.13;100.00;100303.63;4989843;28;20510;-61
2021/10/13 05:48:59;;;;;;;25.75;16.20;;;;;;;6.25;100.00;100318.78;4993935;28;20030;-61
2021/10/13 05:51:24;;;;;;;24.33;16.42;;;;;;;6.29;100.00;100311.44;5009435;28;20059;-61
2021/10/13 05:53:50;;;;;;;24.92;16.80;;;;;;;6.38;100.00;100319.59;5009264;28;20041;-61
2021/10/13 05:56:15;;;;;;;26.40;16.55;;;;;;;6.39;100.00;100325.81;5001026;28;20041;-62
2021/10/13 05:58:41;;;;;;;28.65;16.88;;;;;;;6.42;100.00;100331.75;4989610;28;20120;-61
2021/10/13 06:01:07;;;;;;;25.42;17.10;;;;;;;6.46;100.00;100335.91;4989392;28;20030;-61
2021/10/13 06:03:33;;;;;;;25.20;17.98;;;;;;;6.45;100.00;100320.03;4989559;28;20041;-61
2021/10/13 06:05:58;;;;;;;27.90;18.27;;;;;;;6.60;100.00;100327.78;4990798;28;20022;-61
2021/10/13 06:08:24;;;;;;;25.60;17.23;;;;;;;6.65;100.00;100328.28;5008676;28;20077;-60
2021/10/13 06:10:49;;;;;;;24.42;16.90;;;;;;;6.67;100.00;100333.50;5006814;28;20030;-62
2021/10/13 06:13:15;;;;;;;29.27;17.02;;;;;;;6.74;100.00;100330.31;5006258;28;20065;-60
2021/10/13 06:15:41;;;;;;;30.27;17.88;;;;;;;6.91;100.00;100337.09;5008636;28;20476;-61
2021/10/13 06:18:08;;;;;;;26.48;17.00;;;;;;;6.98;100.00;100343.69;5008631;28;20026;-62
2021/10/13 06:20:34;;;;;;;28.02;16.98;;;;;;;7.03;100.00;100342.38;5008496;28;20040;-61
2021/10/13 06:23:00;;;;;;;23.17;16.00;;;;;;;7.10;100.00;100350.78;5008335;28;20340;-61
2021/10/13 06:25:26;;;;;;;25.63;16.77;;;;;;;7.20;100.00;100349.16;5008751;28;20073;-62
2021/10/13 06:27:51;;;;;;;31.50;17.83;;;;;;;7.28;100.00;100348.59;5008317;28;20116;-62
2021/10/13 06:30:17;;;;;;;30.80;18.55;;;;;;;7.31;100.00;100348.34;5008523;28;20377;-62
2021/10/13 06:32:42;;;;;;;23.77;16.40;;;;;;;7.35;100.00;100355.19;5008353;28;20025;-62
2021/10/13 06:35:08;;;;;;;26.92;17.20;;;;;;;7.46;100.00;100364.09;5008448;28;20558;-61
2021/10/13 06:37:34;;;;;;;24.48;14.95;;;;;;;7.53;100.00;100361.78;5008479;28;20029;-61
2021/10/13 06:40:00;;;;;;;23.73;15.68;;;;;;;7.56;100.00;100350.91;5008490;28;20026;-61
2021/10/13 06:42:25;;;;;;;24.02;16.70;;;;;;;7.86;100.00;100367.25;5008279;28;20026;-59
2021/10/13 06:44:51;;;;;;;25.23;15.65;;;;;;;7.95;100.00;100363.91;5008041;28;20319;-61
2021/10/13 06:47:16;;;;;;;24.55;15.48;;;;;;;8.04;100.00;100376.56;5008634;28;20044;-62
2021/10/13 06:49:41;;;;;;;21.55;15.10;;;;;;;8.09;100.00;100369.06;5008462;28;20044;-62
2021/10/13 06:52:07;;;;;;;21.60;15.52;;;;;;;8.26;100.00;100371.31;5008346;28;20061;-61
2021/10/13 06:54:32;;;;;;;23.95;14.93;;;;;;;8.48;100.00;100372.16;5006965;28;20025;-62
2021/10/13 06:56:58;;;;;;;21.10;14.82;;;;;;;8.53;100.00;100375.34;5008132;28;20037;-62
2021/10/13 06:59:23;;;;;;;20.63;14.23;;;;;;;8.52;100.00;100351.41;5008171;28;20033;-63
2021/10/13 07:01:49;;;;;;;20.33;14.07;;;;;;;8.69;100.00;100369.63;5009528;28;20061;-62
2021/10/13 07:04:14;;;;;;;19.05;14.23;;;;;;;8.89;100.00;100379.59;4992917;28;20022;-62
2021/10/13 07:06:40;;;;;;;19.75;13.95;;;;;;;8.95;100.00;100371.94;4991296;28;20632;-63
2021/10/13 07:09:05;;;;;;;16.92;12.77;;;;;;;8.97;100.00;100353.09;4992418;28;20029;-62
2021/10/13 07:11:32;;;;;;;18.50;12.98;;;;;;;9.18;100.00;100372.75;4992801;28;20034;-61
2021/10/13 07:13:57;;;;;;;21.83;13.73;;;;;;;9.24;100.00;100372.25;4992158;28;20114;-62
2021/10/13 07:16:23;;;;;;;18.27;14.10;;;;;;;9.16;100.00;100348.78;4991010;28;20108;-61
2021/10/13 07:18:48;;;;;;;19.23;13.40;;;;;;;9.42;100.00;100377.94;4991211;28;20440;-62
2021/10/13 07:21:13;;;;;;;17.33;12.98;;;;;;;9.45;100.00;100377.69;4992217;28;20080;-61
2021/10/13 07:23:39;;;;;;;18.02;12.70;;;;;;;9.46;100.00;100382.03;4992163;28;20029;-61
2021/10/13 07:26:05;;;;;;;17.05;12.77;;;;;;;9.56;100.00;100374.94;5005877;28;20053;-62
2021/10/13 07:28:30;;;;;;;20.33;12.88;;;;;;;9.61;100.00;100367.41;5011514;28;20041;-62
2021/10/13 07:30:56;;;;;;;17.95;11.85;;;;;;;9.67;100.00;100377.59;5011480;28;20030;-61
2021/10/13 07:33:21;;;;;;;15.85;12.35;;;;;;;9.71;100.00;100381.72;5011705;28;20026;-61
2021/10/13 07:35:47;;;;;;;14.07;11.68;;;;;;;9.82;100.00;100377.16;5011868;28;20030;-61
2021/10/13 07:38:14;;;;;;;15.10;12.07;;;;;;;9.87;100.00;100388.34;5011766;28;20026;-61
2021/10/13 07:40:39;;;;;;;13.55;10.38;;;;;;;9.94;100.00;100388.69;5011496;28;20026;-63
2021/10/13 07:43:07;;;;;;;19.58;12.30;;;;;;;10.13;98.39;100388.88;5011128;28;20026;-63
2021/10/13 07:45:32;;;;;;;17.20;12.25;;;;;;;10.21;98.13;100389.06;5011831;28;20416;-62
2021/10/13 07:47:58;;;;;;;18.13;12.50;;;;;;;10.29;98.00;100397.31;5011067;28;20156;-62
2021/10/13 07:50:23;;;;;;;15.95;10.70;;;;;;;10.27;96.97;100397.44;5011416;28;20092;-63
2021/10/13 07:52:49;;;;;;;14.23;10.80;;;;;;;10.44;96.42;100398.66;5011467;28;20017;-62
2021/10/13 07:55:15;;;;;;;12.68;9.70;;;;;;;10.47;95.25;100388.53;5011524;28;20033;-63
2021/10/13 07:57:40;;;;;;;15.15;9.93;;;;;;;10.54;95.14;100403.09;5011151;28;20021;-62
2021/10/13 08:00:07;;;;;;;14.02;10.13;;;;;;;10.61;94.97;100396.22;5011367;28;20037;-61
2021/10/13 08:02:32;;;;;;;12.65;10.10;;;;;;;10.80;93.14;100408.91;5010770;28;20120;-61
2021/10/13 08:04:58;;;;;;;16.65;10.13;;;;;;;10.81;93.15;100399.88;5011128;28;20049;-63
2021/10/13 08:07:23;;;;;;;11.77;9.20;;;;;;;10.94;92.05;100398.63;5010851;28;20029;-61
2021/10/13 08:09:49;;;;;;;12.07;9.38;;;;;;;10.76;93.08;100386.00;5011192;28;20018;-63
2021/10/13 08:12:14;;;;;;;10.48;8.32;;;;;;;10.86;93.50;100406.53;5010686;28;20026;-62
2021/10/13 08:14:40;;;;;;;9.35;8.10;;;;;;;10.89;92.49;100405.38;5009623;28;20060;-61
2021/10/13 08:17:09;;;;;;;10.88;8.05;;;;;;;10.90;91.40;100402.56;5010751;28;20044;-63
2021/10/13 08:19:34;;;;;;;12.73;8.25;;;;;;;10.93;90.50;100398.78;5025861;28;20025;-62
2021/10/13 08:22:00;;;;;;;10.20;8.00;;;;;;;11.06;90.31;100402.94;5010524;28;20498;-62
2021/10/13 08:24:26;;;;;;;10.65;8.13;;;;;;;11.03;90.24;100410.41;5010648;28;20052;-62
2021/10/13 08:26:51;;;;;;;9.85;7.65;;;;;;;11.08;89.82;100417.06;5010789;28;20046;-62
2021/10/13 08:29:17;;;;;;;8.63;7.00;;;;;;;11.03;90.25;100411.25;5010562;28;20033;-62
2021/10/13 08:31:42;;;;;;;11.05;7.68;;;;;;;11.02;90.90;100417.59;5010785;28;20025;-62
2021/10/13 08:34:08;;;;;;;10.60;7.90;;;;;;;11.10;90.70;100417.75;5010543;28;20083;-63
2021/10/13 08:36:33;;;;;;;11.25;7.80;;;;;;;11.15;89.84;100423.59;5010356;28;20030;-63
2021/10/13 08:38:58;;;;;;;11.10;7.38;;;;;;;11.07;90.10;100407.28;5010361;28;20030;-64
2021/10/13 08:41:24;;;;;;;10.18;8.00;;;;;;;11.10;90.76;100422.31;5010470;28;20040;-64
2021/10/13 08:43:49;;;;;;;10.18;7.90;;;;;;;11.09;90.67;100409.84;5010025;28;20056;-64
2021/10/13 08:46:15;;;;;;;9.05;6.90;;;;;;;11.18;90.08;100425.16;5008476;28;20038;-64
2021/10/13 08:48:41;;;;;;;8.65;7.00;;;;;;;11.18;89.80;100431.38;4990858;28;20030;-63
2021/10/13 08:51:07;;;;;;;8.95;6.88;;;;;;;11.13;89.19;100417.50;4990507;28;20133;-64
2021/10/13 08:53:33;;;;;;;10.43;6.78;;;;;;;11.12;89.21;100420.31;4990459;28;20038;-63
2021/10/13 08:55:58;;;;;;;6.95;6.20;;;;;;;11.19;88.68;100419.66;4990537;28;20037;-64
2021/10/13 08:58:27;;;;;;;6.68;5.60;;;;;;;11.17;89.33;100423.47;4990549;28;20022;-64
2021/10/13 09:01:04;;;;;;;7.45;5.50;;;;;;;11.22;87.92;100426.56;4990467;28;20076;-64
2021/10/13 09:03:47;;;;;;;7.47;5.32;;;;;;;11.24;85.85;100417.41;4988963;28;20181;-64
2021/10/13 09:06:20;;;;;;;5.88;5.05;;;;;;;11.20;86.47;100424.06;4990402;28;20030;-64
2021/10/13 09:09:00;;;;;;;6.80;4.80;;;;;;;11.23;85.38;100422.91;4990160;28;20030;-64
2021/10/13 09:11:33;;;;;;;7.28;4.80;;;;;;;11.33;84.80;100421.97;4990286;28;20480;-62
2021/10/13 09:14:19;;;;;;;10.48;5.55;;;;;;;11.40;83.63;100417.75;4990124;28;20456;-62
2021/10/13 09:17:07;;;;;;;5.38;4.10;;;;;;;11.47;82.69;100429.63;4990548;28;20033;-64
2021/10/13 09:19:42;;;;;;;5.68;4.68;;;;;;;11.40;84.08;100427.63;4989856;28;20046;-63
2021/10/13 09:22:11;;;;;;;6.20;3.90;;;;;;;11.38;84.41;100424.22;4988555;28;20433;-63
2021/10/13 09:24:42;;;;;;;4.43;3.67;;;;;;;11.39;84.80;100432.13;4989679;28;20476;-62
2021/10/13 09:27:22;;;;;;;5.18;4.00;;;;;;;11.44;84.58;100429.91;4989631;28;20137;-63
2021/10/13 09:29:48;;;;;;;6.13;3.80;;;;;;;11.39;85.61;100420.56;4989892;28;20026;-63
2021/10/13 09:32:20;;;;;;;5.35;4.00;;;;;;;11.43;85.63;100421.97;4989641;28;20034;-63
2021/10/13 09:34:47;;;;;;;5.55;4.28;;;;;;;11.60;85.62;100450.03;4989672;28;20135;-62
2021/10/13 09:37:13;;;;;;;7.65;4.53;;;;;;;11.56;85.31;100446.75;4989837;28;20026;-62
2021/10/13 09:39:39;;;;;;;5.80;4.00;;;;;;;11.51;84.21;100438.25;4989662;28;20031;-61
2021/10/13 09:42:10;;;;;;;5.07;4.28;;;;;;;11.52;83.93;100448.03;4989301;28;20453;-63
2021/10/13 09:44:40;;;;;;;5.43;3.97;;;;;;;11.65;83.50;100447.78;4989372;28;20380;-62
2021/10/13 09:47:11;;;;;;;6.13;4.00;;;;;;;11.62;82.28;100442.69;4989642;28;20404;-63
2021/10/13 09:49:43;;;;;;;6.53;3.67;;;;;;;11.58;82.16;100440.25;4989866;28;20061;-65
2021/10/13 09:52:16;;;;;;;5.30;3.28;;;;;;;11.55;83.21;100443.22;4989379;28;20026;-63
2021/10/13 09:54:44;;;;;;;5.20;3.72;;;;;;;11.70;79.52;100435.63;4989542;28;20033;-65
2021/10/13 09:57:15;;;;;;;5.07;3.58;;;;;;;11.54;79.66;100427.22;4989146;28;20084;-63
2021/10/13 10:00:07;;;;;;;3.70;3.20;;;;;;;11.72;77.53;100447.09;4989352;28;20037;-62
2021/10/13 10:02:38;;;;;;;4.60;3.63;;;;;;;12.01;73.21;100447.13;5007305;28;20026;-63
2021/10/13 10:05:11;;;;;;;4.57;3.42;;;;;;;12.15;75.72;100441.34;5008602;28;20026;-62
2021/10/13 10:07:46;;;;;;;4.20;3.50;;;;;;;12.65;71.13;100434.78;5008795;28;20025;-62
2021/10/13 10:10:13;;;;;;;4.20;3.13;;;;;;;12.77;70.69;100447.91;5008693;28;20034;-63
2021/10/13 10:12:58;;;;;;;4.70;3.15;;;;;;;13.15;68.76;100438.88;5008823;28;20028;-63
2021/10/13 10:15:37;;;;;;;4.50;3.05;;;;;;;13.37;66.87;100436.66;5008479;28;20053;-62
2021/10/13 10:18:26;;;;;;;3.72;2.80;;;;;;;13.62;64.53;100435.13;5007347;28;20064;-61
2021/10/13 10:20:53;;;;;;;4.75;3.15;;;;;;;13.83;62.38;100426.75;5008403;28;20120;-63
2021/10/13 10:23:29;;;;;;;3.78;3.35;;;;;;;13.68;63.49;100434.50;5008709;28;20026;-62
2021/10/13 10:25:58;;;;;;;3.50;3.17;;;;;;;13.52;63.59;100443.22;5008205;28;20061;-63
2021/10/13 10:28:51;;;;;;;3.92;2.55;;;;;;;13.42;64.10;100428.13;5008264;28;20021;-63
2021/10/13 10:31:38;;;;;;;4.45;2.90;;;;;;;13.35;63.19;100435.13;5007621;28;20029;-63
2021/10/13 10:34:03;;;;;;;3.60;3.00;;;;;;;13.35;62.30;100432.44;5003066;28;20038;-64
2021/10/13 10:36:35;;;;;;;3.08;2.50;;;;;;;13.29;62.73;100435.72;4999202;28;20456;-63
2021/10/13 10:39:03;;;;;;;4.35;2.70;;;;;;;13.31;61.69;100431.88;5007515;28;20091;-64
2021/10/13 10:41:47;;;;;;;3.95;2.85;;;;;;;13.25;61.53;100421.69;5008502;28;20037;-64
2021/10/13 10:44:34;;;;;;;3.13;2.30;;;;;;;13.31;61.07;100420.25;4988762;28;20101;-64
2021/10/13 10:47:08;;;;;;;3.65;2.53;;;;;;;13.31;61.21;100420.25;4989165;28;20547;-64
2021/10/13 10:49:45;;;;;;;3.33;2.42;;;;;;;13.29;62.35;100423.09;4988976;28;20113;-64
2021/10/13 10:52:12;;;;;;;2.75;2.20;;;;;;;13.28;60.94;100420.53;4988872;28;20030;-63
2021/10/13 10:54:38;;;;;;;2.30;2.00;;;;;;;13.35;59.78;100424.34;5003940;28;20089;-65
2021/10/13 10:57:32;;;;;;;2.92;1.88;;;;;;;13.26;57.23;100420.69;4988592;28;20425;-64
2021/10/13 10:59:59;;;;;;;2.30;1.90;;;;;;;13.18;57.61;100423.28;4989009;28;20037;-63
2021/10/13 11:02:25;;;;;;;3.63;1.90;;;;;;;13.17;58.41;100412.66;4988790;28;20057;-64
2021/10/13 11:05:08;;;;;;;5.22;1.90;;;;;;;13.16;58.21;100409.13;4988656;28;20026;-65
2021/10/13 11:07:38;;;;;;;2.17;1.90;;;;;;;13.18;59.05;100422.44;4988776;28;20042;-63
2021/10/13 11:10:09;;;;;;;2.97;2.15;;;;;;;13.22;57.70;100423.84;4988568;28;20037;-64
2021/10/13 11:12:52;;;;;;;5.25;2.28;;;;;;;13.20;56.23;100425.84;4988865;28;20041;-64
2021/10/13 11:15:19;;;;;;;3.78;1.80;;;;;;;13.19;56.45;100416.91;4988634;28;20528;-64
2021/10/13 11:17:45;;;;;;;2.60;1.90;;;;;;;13.18;56.47;100411.66;4999162;28;20026;-65
2021/10/13 11:20:14;;;;;;;2.00;1.50;;;;;;;13.27;54.99;100403.56;5008179;28;20036;-64
2021/10/13 11:22:40;;;;;;;2.28;1.35;;;;;;;13.30;54.37;100410.47;5008110;28;20057;-63